createdAt,value
2018-10-18T00:01:31.787Z,28.37
2018-10-18T00:04:01.132Z,30.13
2018-10-18T00:06:30.815Z,30.23
2018-10-18T00:09:00.466Z,29.37
2018-10-18T00:11:29.768Z,29.77
2018-10-18T00:13:59.178Z,27.80
2018-10-18T00:16:29.499Z,28.50
2018-10-18T00:18:59.277Z,27.30
2018-10-18T00:21:28.652Z,28.70
2018-10-18T00:23:59.464Z,28.77
2018-10-18T00:26:30.812Z,29.40
2018-10-18T00:29:01.905Z,29.50
2018-10-18T00:31:31.762Z,28.50
2018-10-18T00:34:01.271Z,28.00
2018-10-18T00:36:31.238Z,29.43
2018-10-18T00:39:01.342Z,28.30
2018-10-18T00:41:30.718Z,28.53
2018-10-18T00:44:00.347Z,29.43
2018-10-18T00:46:30.791Z,29.40
2018-10-18T00:49:00.871Z,28.33
2018-10-18T00:51:31.474Z,28.70
2018-10-18T00:54:00.993Z,29.00
2018-10-18T00:56:31.612Z,27.17
2018-10-18T00:59:02.296Z,26.37
2018-10-18T01:01:32.282Z,29.33
2018-10-18T01:04:02.147Z,28.67
2018-10-18T01:06:31.439Z,28.63
2018-10-18T01:09:00.523Z,28.80
2018-10-18T01:11:29.623Z,28.90
2018-10-18T01:13:58.671Z,29.67
2018-10-18T01:16:28.759Z,28.20
2018-10-18T01:18:58.096Z,29.77
2018-10-18T01:21:27.624Z,28.33
2018-10-18T01:23:57.089Z,28.63
2018-10-18T01:26:26.699Z,27.90
2018-10-18T01:28:56.077Z,28.37
2018-10-18T01:31:25.835Z,27.27
2018-10-18T01:33:54.951Z,27.97
2018-10-18T01:36:24.707Z,27.60
2018-10-18T01:38:53.932Z,29.80
2018-10-18T01:41:23.295Z,27.77
2018-10-18T01:43:53.627Z,28.60
2018-10-18T01:46:23.325Z,28.63
2018-10-18T01:48:52.314Z,28.00
2018-10-18T01:51:21.680Z,26.97
2018-10-18T01:53:50.924Z,28.73
2018-10-18T01:56:20.295Z,28.00
2018-10-18T01:58:50.496Z,29.63
2018-10-18T02:01:20.047Z,30.93
2018-10-18T02:03:50.369Z,29.27
2018-10-18T02:06:20.179Z,28.70
2018-10-18T02:08:49.962Z,29.60
2018-10-18T02:11:19.190Z,28.93
2018-10-18T02:13:48.492Z,29.07
2018-10-18T02:16:18.917Z,29.20
2018-10-18T02:18:48.849Z,28.63
2018-10-18T02:21:18.665Z,28.07
2018-10-18T02:23:48.317Z,28.83
2018-10-18T02:26:17.995Z,28.70
2018-10-18T02:28:47.748Z,27.97
2018-10-18T02:31:17.339Z,28.27
2018-10-18T02:33:47.211Z,26.43
2018-10-18T02:36:17.415Z,27.60
2018-10-18T02:38:47.397Z,28.33
2018-10-18T02:41:17.154Z,28.37
2018-10-18T02:43:46.702Z,26.97
2018-10-18T02:46:16.451Z,28.83
2018-10-18T02:48:45.864Z,28.50
2018-10-18T02:51:15.246Z,27.97
2018-10-18T02:53:44.656Z,27.20
2018-10-18T02:56:14.069Z,26.37
2018-10-18T02:58:43.186Z,27.53
2018-10-18T03:01:12.317Z,27.77
2018-10-18T03:03:41.297Z,27.83
2018-10-18T03:06:10.865Z,28.73
2018-10-18T03:08:40.094Z,26.57
2018-10-18T03:11:09.563Z,27.67
2018-10-18T03:13:39.114Z,27.43
2018-10-18T03:16:08.536Z,27.80
2018-10-18T03:18:37.871Z,28.47
2018-10-18T03:21:07.462Z,27.77
2018-10-18T03:23:37.102Z,28.07
2018-10-18T03:26:06.718Z,27.73
2018-10-18T03:28:35.928Z,26.17
2018-10-18T03:31:05.968Z,25.83
2018-10-18T03:33:36.269Z,27.43
2018-10-18T03:36:06.741Z,28.30
2018-10-18T03:38:36.648Z,26.90
2018-10-18T03:41:06.617Z,26.60
2018-10-18T03:43:36.119Z,27.80
2018-10-18T03:46:05.799Z,28.63
2018-10-18T03:48:35.715Z,27.23
2018-10-18T03:51:05.173Z,27.93
2018-10-18T03:53:35.182Z,27.63
2018-10-18T03:56:06.797Z,27.03
2018-10-18T03:58:36.337Z,26.97
2018-10-18T04:01:06.896Z,27.77
2018-10-18T04:03:36.723Z,27.53
2018-10-18T04:06:06.661Z,28.03
2018-10-18T04:08:36.231Z,29.50
2018-10-18T04:11:06.218Z,27.93
2018-10-18T04:13:36.418Z,27.00
2018-10-18T04:16:06.516Z,28.00
2018-10-18T04:18:36.260Z,28.40
2018-10-18T04:21:06.409Z,29.83
2018-10-18T04:23:36.206Z,30.60
2018-10-18T04:26:05.667Z,29.30
2018-10-18T04:28:37.055Z,28.57
2018-10-18T04:31:06.563Z,28.23
2018-10-18T04:33:36.427Z,27.87
2018-10-18T04:36:06.204Z,28.43
2018-10-18T04:38:36.018Z,29.03
2018-10-18T04:41:06.451Z,28.90
2018-10-18T04:43:36.412Z,28.43
2018-10-18T04:46:06.699Z,29.70
2018-10-18T04:48:37.009Z,29.63
2018-10-18T04:51:07.029Z,29.73
2018-10-18T04:53:36.123Z,30.10
2018-10-18T04:56:05.618Z,29.10
2018-10-18T04:58:34.687Z,32.27
2018-10-18T05:01:03.790Z,29.73
2018-10-18T05:03:33.096Z,30.97
2018-10-18T05:06:03.855Z,29.40
2018-10-18T05:08:33.255Z,31.57
2018-10-18T05:11:02.667Z,30.43
2018-10-18T05:13:32.228Z,30.53
2018-10-18T05:16:01.834Z,30.33
2018-10-18T05:18:31.175Z,30.83
2018-10-18T05:21:00.513Z,30.13
2018-10-18T05:23:29.574Z,30.37
2018-10-18T05:25:59.186Z,31.17
2018-10-18T05:28:29.310Z,30.13
2018-10-18T05:30:59.559Z,29.30
2018-10-18T05:33:29.651Z,31.27
2018-10-18T05:35:58.997Z,30.07
2018-10-18T05:38:28.339Z,29.00
2018-10-18T05:40:57.948Z,29.93
2018-10-18T05:43:27.813Z,29.03
2018-10-18T05:45:57.467Z,29.43
2018-10-18T05:48:27.706Z,31.93
2018-10-18T05:50:56.934Z,29.63
2018-10-18T05:53:26.071Z,31.50
2018-10-18T05:55:56.101Z,31.63
2018-10-18T05:58:25.557Z,31.83
2018-10-18T06:00:55.318Z,33.63
2018-10-18T06:03:25.523Z,33.50
2018-10-18T06:05:55.379Z,31.93
2018-10-18T06:08:25.216Z,31.27
2018-10-18T06:11:06.462Z,32.13
2018-10-18T06:13:36.025Z,31.37
2018-10-18T06:16:05.145Z,31.40
2018-10-18T06:18:34.393Z,33.07
2018-10-18T06:21:03.574Z,32.50
2018-10-18T06:23:33.998Z,33.23
2018-10-18T06:26:04.509Z,33.03
2018-10-18T06:28:35.403Z,32.77
2018-10-18T06:31:08.518Z,34.30
2018-10-18T06:33:39.528Z,32.73
2018-10-18T06:36:13.754Z,32.47
2018-10-18T06:38:43.569Z,33.93
2018-10-18T06:41:13.624Z,33.83
2018-10-18T06:43:43.246Z,33.47
2018-10-18T06:46:14.255Z,33.97
2018-10-18T06:48:44.885Z,34.60
2018-10-18T06:51:14.365Z,34.73
2018-10-18T06:53:43.814Z,36.63
2018-10-18T06:56:14.098Z,35.13
2018-10-18T06:58:45.387Z,35.50
2018-10-18T07:01:15.489Z,34.60
2018-10-18T07:03:44.692Z,35.57
2018-10-18T07:06:14.732Z,35.63
2018-10-18T07:08:44.207Z,36.20
2018-10-18T07:11:13.936Z,36.07
2018-10-18T07:13:43.525Z,36.40
2018-10-18T07:16:13.361Z,35.70
2018-10-18T07:18:43.107Z,35.77
2018-10-18T07:21:12.885Z,36.47
2018-10-18T07:23:42.861Z,36.57
2018-10-18T07:26:12.817Z,35.50
2018-10-18T07:28:42.555Z,35.93
2018-10-18T07:31:12.405Z,37.73
2018-10-18T07:33:41.914Z,36.53
2018-10-18T07:36:11.789Z,35.10
2018-10-18T07:38:41.432Z,37.00
2018-10-18T07:41:11.268Z,35.43
2018-10-18T07:43:41.076Z,36.20
2018-10-18T07:46:10.654Z,36.47
2018-10-18T07:48:40.379Z,37.67
2018-10-18T07:51:10.569Z,37.37
2018-10-18T07:53:40.360Z,35.63
2018-10-18T07:56:10.232Z,36.50
2018-10-18T07:58:40.117Z,36.83
2018-10-18T08:01:10.247Z,37.70
2018-10-18T08:03:40.046Z,37.63
2018-10-18T08:06:09.833Z,37.27
2018-10-18T08:08:39.510Z,37.90
2018-10-18T08:11:09.201Z,38.03
2018-10-18T08:13:39.262Z,37.87
2018-10-18T08:16:09.123Z,35.80
2018-10-18T08:18:38.549Z,38.00
2018-10-18T08:21:07.972Z,37.90
2018-10-18T08:23:37.882Z,39.20
2018-10-18T08:26:07.316Z,39.30
2018-10-18T08:28:36.334Z,39.70
2018-10-18T08:31:05.697Z,39.00
2018-10-18T08:33:35.223Z,39.30
2018-10-18T08:36:04.428Z,39.00
2018-10-18T08:38:33.486Z,36.97
2018-10-18T08:41:03.209Z,37.90
2018-10-18T08:43:32.234Z,36.40
2018-10-18T08:46:01.176Z,36.40
2018-10-18T08:48:30.502Z,35.37
2018-10-18T08:51:00.163Z,37.67
2018-10-18T08:53:29.629Z,35.63
2018-10-18T08:55:59.631Z,35.63
2018-10-18T08:58:29.566Z,36.33
2018-10-18T09:00:59.078Z,36.33
2018-10-18T09:03:28.670Z,36.80
2018-10-18T09:05:58.633Z,34.47
2018-10-18T09:08:28.319Z,35.93
2018-10-18T09:10:58.436Z,35.63
2018-10-18T09:13:28.444Z,34.67
2018-10-18T09:15:58.196Z,33.63
2018-10-18T09:18:27.973Z,33.07
2018-10-18T09:20:57.650Z,33.23
2018-10-18T09:23:27.388Z,33.93
2018-10-18T09:25:57.225Z,34.00
2018-10-18T09:28:27.514Z,31.97
2018-10-18T09:30:57.185Z,32.57
2018-10-18T09:33:27.038Z,33.23
2018-10-18T09:35:56.936Z,32.03
2018-10-18T09:38:26.900Z,29.63
2018-10-18T09:40:57.077Z,31.33
2018-10-18T09:43:30.467Z,28.83
2018-10-18T09:46:00.313Z,30.57
2018-10-18T09:48:29.805Z,31.47
2018-10-18T09:50:59.848Z,30.83
2018-10-18T09:53:29.698Z,31.77
2018-10-18T09:55:59.683Z,31.43
2018-10-18T09:58:29.755Z,33.90
2018-10-18T10:01:04.907Z,31.37
2018-10-18T10:03:35.324Z,31.77
2018-10-18T10:06:05.067Z,30.63
2018-10-18T10:08:35.068Z,31.03
2018-10-18T10:11:04.349Z,29.80
2018-10-18T10:13:34.202Z,29.53
2018-10-18T10:16:04.352Z,29.23
2018-10-18T10:18:33.933Z,29.47
2018-10-18T10:21:04.066Z,30.17
2018-10-18T10:23:33.939Z,29.80
2018-10-18T10:26:04.176Z,27.70
2018-10-18T10:28:33.797Z,28.63
2018-10-18T10:31:03.525Z,28.27
2018-10-18T10:33:33.810Z,28.43
2018-10-18T10:36:04.071Z,29.03
2018-10-18T10:38:34.673Z,28.83
2018-10-18T10:41:04.936Z,28.97
2018-10-18T10:43:34.653Z,28.87
2018-10-18T10:46:05.178Z,29.57
2018-10-18T10:48:36.511Z,29.30
2018-10-18T10:51:06.549Z,29.77
2018-10-18T10:53:38.207Z,30.40
2018-10-18T10:56:08.813Z,28.53
2018-10-18T10:58:39.223Z,30.03
2018-10-18T11:01:19.785Z,30.33
2018-10-18T11:03:50.184Z,28.80
2018-10-18T11:06:20.000Z,28.90
2018-10-18T11:08:49.869Z,29.13
2018-10-18T11:11:20.035Z,28.30
2018-10-18T11:13:51.726Z,27.30
2018-10-18T11:16:22.121Z,26.43
2018-10-18T11:18:51.629Z,25.67
2018-10-18T11:21:21.333Z,25.47
2018-10-18T11:23:52.964Z,25.27
2018-10-18T11:26:22.910Z,25.40
2018-10-18T11:28:54.278Z,25.03
2018-10-18T11:31:25.487Z,25.60
2018-10-18T11:33:58.093Z,23.03
2018-10-18T11:36:28.530Z,24.80
2018-10-18T11:38:58.040Z,24.47
2018-10-18T11:41:27.776Z,24.00
2018-10-18T11:43:57.557Z,24.07
2018-10-18T11:46:27.637Z,23.70
2018-10-18T11:48:58.219Z,25.93
2018-10-18T11:51:28.541Z,23.27
2018-10-18T11:53:59.643Z,24.43
2018-10-18T11:56:29.302Z,24.90
2018-10-18T11:58:59.398Z,23.97
2018-10-18T12:01:31.259Z,23.93
2018-10-18T12:04:01.159Z,24.37
2018-10-18T12:06:30.562Z,24.10
2018-10-18T12:08:59.875Z,22.80
2018-10-18T12:11:29.831Z,23.50
2018-10-18T12:13:59.616Z,22.60
2018-10-18T12:16:31.226Z,24.47
2018-10-18T12:19:06.757Z,23.07
2018-10-18T12:21:35.889Z,23.23
2018-10-18T12:24:06.832Z,23.40
2018-10-18T12:26:37.937Z,22.83
2018-10-18T12:29:07.803Z,21.93
2018-10-18T12:31:37.337Z,22.43
2018-10-18T12:34:06.893Z,22.53
2018-10-18T12:36:36.383Z,20.90
2018-10-18T12:39:08.026Z,21.37
2018-10-18T12:41:38.329Z,21.73
2018-10-18T12:44:07.383Z,19.50
2018-10-18T12:46:38.610Z,19.80
2018-10-18T12:49:08.173Z,19.63
2018-10-18T12:51:37.654Z,19.70
2018-10-18T12:54:08.839Z,19.53
2018-10-18T12:56:39.900Z,19.03
2018-10-18T12:59:12.021Z,17.43
2018-10-18T13:01:41.875Z,18.47
2018-10-18T13:04:12.693Z,19.00
2018-10-18T13:06:43.370Z,19.77
2018-10-18T13:09:12.793Z,18.63
2018-10-18T13:11:42.557Z,19.30
2018-10-18T13:14:12.334Z,19.40
2018-10-18T13:16:41.741Z,18.60
2018-10-18T13:19:11.123Z,18.37
2018-10-18T13:21:41.028Z,19.43
2018-10-18T13:24:10.407Z,20.30
2018-10-18T13:26:40.259Z,20.17
2018-10-18T13:29:10.937Z,19.97
2018-10-18T13:31:40.987Z,20.23
2018-10-18T13:34:11.404Z,20.53
2018-10-18T13:36:41.452Z,21.80
2018-10-18T13:39:15.271Z,20.13
2018-10-18T13:41:47.056Z,20.40
2018-10-18T13:44:17.365Z,20.37
2018-10-18T13:46:47.257Z,17.60
2018-10-18T13:49:16.369Z,18.47
2018-10-18T13:51:46.504Z,18.27
2018-10-18T13:54:17.934Z,18.43
2018-10-18T13:56:47.747Z,17.83
2018-10-18T13:59:28.412Z,18.07
2018-10-18T14:01:58.241Z,17.67
2018-10-18T14:04:27.481Z,18.30
2018-10-18T14:06:56.537Z,18.47
2018-10-18T14:09:25.463Z,18.03
2018-10-18T14:11:54.601Z,18.93
2018-10-18T14:14:24.022Z,18.17
2018-10-18T14:16:53.312Z,18.47
2018-10-18T14:19:23.880Z,18.10
2018-10-18T14:21:53.604Z,16.80
2018-10-18T14:24:22.803Z,18.07
2018-10-18T14:26:52.670Z,19.47
2018-10-18T14:29:22.686Z,18.90
2018-10-18T14:31:52.274Z,19.40
2018-10-18T14:34:21.993Z,19.17
2018-10-18T14:36:51.362Z,20.00
2018-10-18T14:39:21.128Z,18.63
2018-10-18T14:41:50.902Z,19.47
2018-10-18T14:44:21.154Z,19.47
2018-10-18T14:46:51.091Z,19.20
2018-10-18T14:49:21.291Z,19.33
2018-10-18T14:51:52.180Z,18.80
2018-10-18T14:54:22.447Z,20.13
2018-10-18T14:56:52.496Z,19.53
2018-10-18T14:59:23.436Z,18.63
2018-10-18T15:01:54.349Z,19.47
2018-10-18T15:04:24.435Z,19.20
2018-10-18T15:06:54.582Z,19.07
2018-10-18T15:09:25.421Z,21.90
2018-10-18T15:11:55.112Z,19.30
2018-10-18T15:14:25.481Z,19.37
2018-10-18T15:16:55.251Z,19.40
2018-10-18T15:19:28.068Z,19.37
2018-10-18T15:21:57.462Z,19.63
2018-10-18T15:24:27.115Z,20.07
2018-10-18T15:26:58.859Z,21.07
2018-10-18T15:29:28.916Z,19.23
2018-10-18T15:31:58.889Z,19.93
2018-10-18T15:34:28.673Z,20.03
2018-10-18T15:36:59.055Z,19.50
2018-10-18T15:39:28.944Z,18.80
2018-10-18T15:41:58.951Z,18.47
2018-10-18T15:44:30.224Z,18.70
2018-10-18T15:47:01.380Z,16.83
2018-10-18T15:49:31.345Z,18.07
2018-10-18T15:52:01.664Z,18.20
2018-10-18T15:54:32.132Z,17.80
2018-10-18T15:57:02.523Z,17.73
2018-10-18T15:59:32.314Z,16.63
2018-10-18T16:02:02.280Z,17.50
2018-10-18T16:04:32.419Z,17.17
2018-10-18T16:07:03.498Z,17.13
2018-10-18T16:09:33.108Z,17.93
2018-10-18T16:12:03.795Z,18.87
2018-10-18T16:14:35.634Z,16.70
2018-10-18T16:17:05.815Z,18.67
2018-10-18T16:19:37.993Z,17.70
2018-10-18T16:22:10.457Z,18.30
2018-10-18T16:27:48.931Z,17.97
2018-10-18T16:30:18.632Z,17.87
2018-10-18T16:32:48.025Z,17.47
2018-10-18T16:35:17.365Z,18.03
2018-10-18T16:37:47.345Z,17.63
2018-10-18T16:40:17.649Z,18.10
2018-10-18T16:42:46.899Z,15.53
2018-10-18T16:45:16.317Z,16.23
2018-10-18T16:47:46.209Z,15.30
2018-10-18T16:50:16.138Z,16.73
2018-10-18T16:52:46.570Z,16.83
2018-10-18T16:55:16.163Z,15.87
2018-10-18T16:57:45.885Z,16.30
2018-10-18T17:00:39.174Z,22.43
2018-10-18T17:03:14.815Z,17.90
2018-10-18T17:05:45.524Z,16.20
2018-10-18T17:08:15.467Z,15.23
2018-10-18T17:10:47.397Z,15.17
2018-10-18T17:13:18.377Z,13.83
2018-10-18T17:15:48.497Z,12.67
2018-10-18T17:18:18.541Z,10.60
2018-10-18T17:20:48.887Z,11.00
2018-10-18T17:23:18.506Z,9.73
2018-10-18T17:25:48.147Z,10.13
2018-10-18T17:28:18.633Z,8.03
2018-10-18T17:30:49.307Z,8.03
2018-10-18T17:33:20.070Z,7.60
2018-10-18T17:35:51.584Z,6.77
2018-10-18T17:38:23.113Z,7.13
2018-10-18T17:40:52.767Z,6.70
2018-10-18T17:43:22.596Z,7.43
2018-10-18T17:45:52.237Z,7.80
2018-10-18T17:48:21.906Z,7.47
2018-10-18T17:50:51.825Z,7.73
2018-10-18T17:53:25.462Z,9.30
2018-10-18T17:55:55.137Z,8.30
2018-10-18T17:58:24.817Z,8.90
2018-10-18T18:00:55.098Z,9.27
2018-10-18T18:03:24.642Z,10.53
2018-10-18T18:05:55.118Z,10.00
2018-10-18T18:08:24.777Z,10.50
2018-10-18T18:10:54.442Z,10.37
2018-10-18T18:13:25.303Z,10.67
2018-10-18T18:15:55.262Z,11.53
2018-10-18T18:18:25.484Z,10.30
2018-10-18T18:20:55.891Z,11.27
2018-10-18T18:23:25.904Z,10.60
2018-10-18T18:25:56.083Z,10.97
2018-10-18T18:28:26.410Z,10.47
2018-10-18T18:30:56.519Z,11.27
2018-10-18T18:33:28.997Z,11.00
2018-10-18T18:35:59.166Z,10.20
2018-10-18T18:38:30.111Z,9.97
2018-10-18T18:41:00.629Z,10.97
2018-10-18T18:43:30.977Z,10.30
2018-10-18T18:46:00.995Z,11.30
2018-10-18T18:48:31.743Z,10.27
2018-10-18T18:51:02.274Z,10.43
2018-10-18T18:53:33.102Z,11.13
2018-10-18T18:56:04.832Z,11.17
2018-10-18T18:58:34.743Z,11.63
2018-10-18T19:01:05.385Z,10.17
2018-10-18T19:03:36.436Z,10.83
2018-10-18T19:06:08.482Z,10.83
2018-10-18T19:08:39.737Z,10.40
2018-10-18T19:11:12.404Z,10.03
2018-10-18T19:13:42.075Z,9.50
2018-10-18T19:16:12.666Z,10.40
2018-10-18T19:18:43.757Z,10.70
2018-10-18T19:21:13.441Z,9.53
2018-10-18T19:23:43.251Z,10.20
2018-10-18T19:26:12.827Z,9.53
2018-10-18T19:28:43.695Z,9.13
2018-10-18T19:31:13.815Z,7.53
2018-10-18T19:33:44.303Z,7.90
2018-10-18T19:36:14.971Z,7.63
2018-10-18T19:38:46.161Z,6.67
2018-10-18T19:41:16.401Z,6.67
2018-10-18T19:43:47.098Z,6.63
2018-10-18T19:46:17.482Z,6.87
2018-10-18T19:48:48.030Z,6.87
2018-10-18T19:51:18.152Z,5.93
2018-10-18T19:53:48.701Z,6.23
2018-10-18T19:56:19.392Z,5.13
2018-10-18T19:58:49.980Z,5.03
2018-10-18T20:01:21.466Z,5.23
2018-10-18T20:03:52.500Z,4.40
2018-10-18T20:06:22.534Z,4.37
2018-10-18T20:08:52.885Z,3.87
2018-10-18T20:11:23.121Z,4.60
2018-10-18T20:13:53.817Z,4.33
2018-10-18T20:16:23.642Z,4.00
2018-10-18T20:18:53.209Z,4.23
2018-10-18T20:21:23.169Z,4.10
2018-10-18T20:23:56.513Z,4.20
2018-10-18T20:26:27.045Z,4.27
2018-10-18T20:28:57.095Z,3.23
2018-10-18T20:31:26.781Z,4.13
2018-10-18T20:33:56.246Z,3.77
2018-10-18T20:36:25.967Z,3.33
2018-10-18T20:38:55.949Z,3.10
2018-10-18T20:41:26.862Z,3.60
2018-10-18T20:43:56.255Z,3.23
2018-10-18T20:46:26.727Z,3.90
2018-10-18T20:48:56.511Z,3.17
2018-10-18T20:51:26.624Z,2.83
2018-10-18T20:53:56.941Z,3.20
2018-10-18T20:56:27.882Z,2.73
2018-10-18T20:58:58.897Z,3.00
2018-10-18T21:01:29.280Z,3.50
2018-10-18T21:03:59.167Z,2.90
2018-10-18T21:06:29.322Z,2.50
2018-10-18T21:08:59.398Z,2.70
2018-10-18T21:11:29.503Z,3.50
2018-10-18T21:13:59.031Z,2.97
2018-10-18T21:16:31.108Z,2.40
2018-10-18T21:19:00.629Z,2.53
2018-10-18T21:21:31.266Z,1.93
2018-10-18T21:24:01.558Z,2.90
2018-10-18T21:26:30.737Z,2.60
2018-10-18T21:29:00.542Z,2.30
2018-10-18T21:31:30.060Z,1.90
2018-10-18T21:34:00.277Z,1.90
2018-10-18T21:36:29.554Z,1.70
2018-10-18T21:38:58.872Z,1.80
2018-10-18T21:41:28.922Z,1.67
2018-10-18T21:43:58.569Z,1.93
2018-10-18T21:46:31.003Z,1.70
2018-10-18T21:49:00.870Z,1.60
2018-10-18T21:51:31.245Z,1.47
2018-10-18T21:54:01.611Z,1.57
2018-10-18T21:56:32.117Z,1.50
2018-10-18T21:59:02.128Z,1.87
2018-10-18T22:01:32.405Z,1.40
2018-10-18T22:04:02.964Z,1.10
2018-10-18T22:06:32.890Z,1.23
2018-10-18T22:09:02.273Z,1.53
2018-10-18T22:11:32.090Z,1.50
2018-10-18T22:14:02.085Z,1.00
2018-10-18T22:16:31.428Z,1.87
2018-10-18T22:19:01.134Z,1.53
2018-10-18T22:21:31.253Z,1.10
2018-10-18T22:24:00.611Z,0.80
2018-10-18T22:26:29.746Z,1.10
2018-10-18T22:28:59.469Z,1.03
2018-10-18T22:31:29.078Z,1.20
2018-10-18T22:33:59.308Z,1.10
2018-10-18T22:36:29.057Z,1.43
2018-10-18T22:38:58.798Z,1.13
2018-10-18T22:41:28.606Z,0.90
2018-10-18T22:43:57.770Z,1.03
2018-10-18T22:46:27.010Z,1.50
2018-10-18T22:48:56.441Z,1.17
2018-10-18T22:51:25.846Z,1.10
2018-10-18T22:53:55.251Z,1.33
2018-10-18T22:56:24.477Z,1.47
2018-10-18T22:58:53.594Z,1.10
2018-10-18T23:01:23.122Z,1.43
2018-10-18T23:03:52.461Z,0.90
2018-10-18T23:06:21.879Z,1.20
2018-10-18T23:08:51.239Z,1.10
2018-10-18T23:11:22.195Z,0.93
2018-10-18T23:13:51.778Z,0.80
2018-10-18T23:16:21.059Z,1.10
2018-10-18T23:18:54.984Z,1.13
2018-10-18T23:21:24.057Z,1.13
2018-10-18T23:23:53.244Z,1.00
2018-10-18T23:26:22.459Z,1.07
2018-10-18T23:28:51.963Z,1.23
2018-10-18T23:31:21.286Z,1.10
2018-10-18T23:33:50.722Z,1.37
2018-10-18T23:36:20.674Z,1.30
2018-10-18T23:38:50.542Z,1.43
2018-10-18T23:41:20.030Z,1.50
2018-10-18T23:43:50.162Z,1.33
2018-10-18T23:46:20.502Z,1.30
2018-10-18T23:48:51.722Z,1.00
2018-10-18T23:51:21.829Z,0.80
2018-10-18T23:53:52.022Z,1.17
2018-10-18T23:56:23.415Z,1.30
2018-10-18T23:58:53.431Z,0.80
